createdAt,value
2023-05-19T00:00:42.052Z,96.09
2023-05-19T00:01:42.071Z,97.44
2023-05-19T00:02:42.244Z,97.53
2023-05-19T00:03:42.137Z,95.93
2023-05-19T00:04:42.130Z,96.75
2023-05-19T00:05:42.184Z,97.40
2023-05-19T00:06:42.163Z,98.04
2023-05-19T00:07:42.153Z,93.55
2023-05-19T00:08:42.149Z,94.50
2023-05-19T00:09:42.208Z,95.24
2023-05-19T00:10:42.223Z,98.12
2023-05-19T00:11:42.203Z,96.25
2023-05-19T00:12:42.237Z,96.32
2023-05-19T00:13:42.246Z,94.45
2023-05-19T00:14:42.251Z,96.42
2023-05-19T00:15:42.302Z,96.84
2023-05-19T00:16:42.293Z,96.15
2023-05-19T00:17:42.416Z,96.40
2023-05-19T00:18:42.343Z,98.56
2023-05-19T00:19:42.320Z,94.23
2023-05-19T00:20:42.338Z,95.03
2023-05-19T00:21:42.402Z,96.59
2023-05-19T00:22:42.370Z,95.87
2023-05-19T00:23:42.389Z,95.73
2023-05-19T00:24:42.364Z,96.04
2023-05-19T00:25:42.427Z,96.99
2023-05-19T00:26:42.394Z,96.02
2023-05-19T00:27:42.434Z,97.80
2023-05-19T00:28:42.450Z,96.41
2023-05-19T00:29:42.485Z,94.91
2023-05-19T00:30:42.484Z,97.40
2023-05-19T00:31:42.554Z,95.04
2023-05-19T00:32:42.579Z,95.83
2023-05-19T00:33:42.551Z,96.25
2023-05-19T00:34:42.535Z,96.17
2023-05-19T00:35:42.563Z,95.08
2023-05-19T00:36:42.569Z,95.98
2023-05-19T00:37:42.606Z,96.55
2023-05-19T00:38:42.614Z,97.83
2023-05-19T00:39:42.617Z,95.15
2023-05-19T00:40:42.630Z,93.95
2023-05-19T00:41:42.628Z,98.27
2023-05-19T00:42:42.649Z,94.49
2023-05-19T00:43:42.651Z,95.28
2023-05-19T00:44:42.687Z,96.62
2023-05-19T00:45:42.718Z,96.77
2023-05-19T00:46:42.716Z,93.91
2023-05-19T00:47:42.756Z,96.86
2023-05-19T00:48:42.724Z,97.85
2023-05-19T00:49:42.725Z,96.14
2023-05-19T00:50:42.749Z,95.50
2023-05-19T00:51:42.778Z,97.66
2023-05-19T00:52:42.806Z,97.43
2023-05-19T00:53:42.817Z,96.12
2023-05-19T00:54:42.838Z,95.70
2023-05-19T00:55:42.846Z,95.90
2023-05-19T00:56:42.887Z,96.15
2023-05-19T00:57:42.877Z,97.31
2023-05-19T00:58:42.899Z,97.17
2023-05-19T00:59:42.909Z,94.77
2023-05-19T01:00:42.970Z,95.41
2023-05-19T01:01:42.971Z,95.55
2023-05-19T01:02:43.098Z,97.40
2023-05-19T01:03:43.145Z,95.98
2023-05-19T01:04:43.537Z,96.56
2023-05-19T01:05:43.001Z,95.91
2023-05-19T01:06:43.004Z,95.48
2023-05-19T01:07:43.037Z,96.83
2023-05-19T01:08:43.024Z,96.75
2023-05-19T01:09:43.078Z,96.51
2023-05-19T01:10:43.087Z,97.19
2023-05-19T01:11:43.102Z,95.63
2023-05-19T01:12:43.103Z,96.97
2023-05-19T01:13:43.155Z,97.09
2023-05-19T01:14:43.138Z,95.01
2023-05-19T01:15:43.137Z,98.18
2023-05-19T01:16:43.233Z,99.29
2023-05-19T01:17:43.191Z,97.80
2023-05-19T01:18:43.288Z,97.47
2023-05-19T01:19:43.263Z,96.49
2023-05-19T01:20:43.254Z,95.48
2023-05-19T01:21:43.268Z,97.85
2023-05-19T01:22:43.294Z,94.90
2023-05-19T01:23:43.341Z,96.70
2023-05-19T01:24:43.355Z,95.37
2023-05-19T01:25:43.390Z,97.12
2023-05-19T01:26:43.409Z,96.44
2023-05-19T01:27:43.408Z,96.97
2023-05-19T01:28:43.446Z,95.41
2023-05-19T01:29:43.441Z,95.34
2023-05-19T01:30:43.495Z,96.78
2023-05-19T01:31:43.531Z,97.32
2023-05-19T01:32:43.494Z,94.47
2023-05-19T01:33:43.542Z,96.35
2023-05-19T01:34:43.552Z,95.17
2023-05-19T01:35:43.614Z,97.30
2023-05-19T01:36:43.593Z,96.93
2023-05-19T01:37:43.630Z,96.08
2023-05-19T01:38:43.630Z,97.21
2023-05-19T01:39:43.683Z,97.09
2023-05-19T01:40:43.702Z,95.62
2023-05-19T01:41:43.706Z,96.96
2023-05-19T01:42:43.756Z,96.38
2023-05-19T01:43:43.826Z,97.02
2023-05-19T01:44:43.775Z,98.44
2023-05-19T01:45:43.900Z,97.24
2023-05-19T01:46:43.843Z,94.35
2023-05-19T01:47:43.889Z,94.60
2023-05-19T01:48:43.877Z,96.63
2023-05-19T01:49:43.880Z,94.67
2023-05-19T01:50:43.936Z,97.10
2023-05-19T01:51:43.961Z,95.98
2023-05-19T01:52:43.936Z,96.87
2023-05-19T01:53:43.970Z,96.48
2023-05-19T01:54:43.988Z,96.30
2023-05-19T01:55:44.002Z,94.71
2023-05-19T01:56:44.044Z,96.20
2023-05-19T01:57:44.057Z,96.36
2023-05-19T01:58:44.083Z,93.53
2023-05-19T01:59:44.069Z,97.27
2023-05-19T02:00:44.129Z,95.86
2023-05-19T02:01:44.193Z,95.42
2023-05-19T02:02:44.230Z,97.00
2023-05-19T02:03:44.206Z,97.65
2023-05-19T02:04:44.355Z,94.41
2023-05-19T02:05:44.212Z,96.56
2023-05-19T02:06:44.348Z,97.10
2023-05-19T02:07:44.258Z,94.11
2023-05-19T02:08:44.352Z,95.95
2023-05-19T02:09:44.301Z,95.85
2023-05-19T02:10:44.310Z,96.06
2023-05-19T02:11:44.360Z,96.26
2023-05-19T02:12:44.405Z,96.31
2023-05-19T02:13:44.393Z,93.94
2023-05-19T02:14:44.436Z,95.95
2023-05-19T02:15:44.462Z,95.31
2023-05-19T02:16:44.485Z,97.15
2023-05-19T02:17:44.495Z,95.10
2023-05-19T02:18:44.551Z,94.47
2023-05-19T02:19:45.315Z,95.86
2023-05-19T02:20:44.551Z,95.32
2023-05-19T02:21:44.591Z,94.50
2023-05-19T02:22:44.626Z,93.96
2023-05-19T02:23:44.660Z,97.88
2023-05-19T02:24:44.670Z,97.63
2023-05-19T02:25:44.698Z,96.00
2023-05-19T02:26:44.684Z,96.59
2023-05-19T02:27:44.799Z,98.24
2023-05-19T02:28:44.783Z,96.74
2023-05-19T02:29:44.776Z,95.98
2023-05-19T02:30:44.821Z,94.24
2023-05-19T02:31:44.848Z,96.17
2023-05-19T02:32:44.919Z,93.74
2023-05-19T02:33:44.892Z,97.43
2023-05-19T02:34:44.881Z,95.43
2023-05-19T02:35:44.893Z,95.35
2023-05-19T02:36:44.956Z,95.50
2023-05-19T02:37:44.979Z,94.45
2023-05-19T02:38:44.983Z,95.77
2023-05-19T02:39:45.008Z,96.04
2023-05-19T02:40:45.061Z,95.77
2023-05-19T02:41:45.092Z,95.58
2023-05-19T02:42:45.132Z,96.37
2023-05-19T02:43:45.209Z,95.75
2023-05-19T02:44:45.129Z,97.32
2023-05-19T02:45:45.144Z,97.51
2023-05-19T02:46:45.383Z,93.48
2023-05-19T02:47:45.235Z,95.13
2023-05-19T02:48:45.240Z,96.19
2023-05-19T02:49:45.250Z,96.77
2023-05-19T02:50:45.273Z,95.44
2023-05-19T02:51:45.303Z,95.70
2023-05-19T02:52:45.322Z,97.04
2023-05-19T02:53:45.380Z,95.68
2023-05-19T02:54:45.383Z,94.95
2023-05-19T02:55:45.399Z,97.39
2023-05-19T02:56:45.475Z,96.93
2023-05-19T02:57:45.479Z,94.71
2023-05-19T02:58:45.493Z,97.70
2023-05-19T02:59:45.549Z,96.58
2023-05-19T03:00:45.545Z,95.58
2023-05-19T03:01:45.641Z,95.75
2023-05-19T03:02:45.730Z,96.81
2023-05-19T03:03:45.752Z,93.83
2023-05-19T03:04:45.657Z,98.62
2023-05-19T03:05:45.667Z,95.48
2023-05-19T03:06:45.697Z,94.93
2023-05-19T03:07:45.747Z,97.79
2023-05-19T03:08:45.781Z,96.04
2023-05-19T03:09:45.803Z,98.07
2023-05-19T03:10:45.797Z,94.34
2023-05-19T03:11:45.871Z,96.70
2023-05-19T03:12:45.846Z,94.38
2023-05-19T03:13:45.861Z,98.18
2023-05-19T03:14:45.917Z,94.76
2023-05-19T03:15:45.999Z,95.63
2023-05-19T03:16:46.090Z,95.66
2023-05-19T03:17:46.093Z,97.16
2023-05-19T03:18:46.024Z,95.91
2023-05-19T03:19:46.008Z,95.78
2023-05-19T03:20:46.054Z,96.87
2023-05-19T03:21:46.050Z,95.86
2023-05-19T03:22:46.108Z,95.06
2023-05-19T03:23:46.106Z,93.92
2023-05-19T03:24:46.184Z,95.94
2023-05-19T03:25:46.187Z,95.55
2023-05-19T03:26:46.222Z,97.62
2023-05-19T03:27:46.253Z,94.65
2023-05-19T03:28:46.248Z,95.76
2023-05-19T03:29:46.390Z,96.74
2023-05-19T03:30:46.333Z,96.94
2023-05-19T03:31:46.368Z,95.36
2023-05-19T03:32:46.394Z,95.21
2023-05-19T03:33:46.394Z,95.58
2023-05-19T03:34:46.439Z,94.63
2023-05-19T03:35:46.449Z,96.00
2023-05-19T03:36:46.573Z,96.94
2023-05-19T03:37:46.508Z,94.90
2023-05-19T03:38:46.555Z,95.61
2023-05-19T03:39:46.567Z,96.49
2023-05-19T03:40:46.640Z,94.55
2023-05-19T03:41:46.634Z,96.39
2023-05-19T03:42:46.678Z,96.30
2023-05-19T03:43:46.709Z,96.28
2023-05-19T03:44:46.715Z,96.68
2023-05-19T03:45:46.781Z,96.89
2023-05-19T03:46:46.801Z,95.10
2023-05-19T03:47:46.832Z,96.46
2023-05-19T03:48:46.837Z,95.60
2023-05-19T03:49:46.849Z,95.22
2023-05-19T03:50:46.907Z,97.30
2023-05-19T03:51:46.904Z,97.75
2023-05-19T03:52:46.910Z,96.40
2023-05-19T03:53:46.996Z,96.53
2023-05-19T03:54:46.963Z,94.90
2023-05-19T03:55:47.026Z,95.47
2023-05-19T03:56:47.016Z,96.31
2023-05-19T03:57:47.075Z,94.90
2023-05-19T03:58:47.122Z,94.86
2023-05-19T03:59:47.129Z,94.20
2023-05-19T04:00:47.153Z,93.44
2023-05-19T04:01:47.184Z,95.53
2023-05-19T04:02:47.338Z,96.00
2023-05-19T04:03:47.317Z,94.52
2023-05-19T04:04:47.356Z,95.54
2023-05-19T04:05:47.273Z,92.93
2023-05-19T04:06:47.300Z,94.97
2023-05-19T04:07:47.338Z,95.03
2023-05-19T04:08:47.341Z,94.14
2023-05-19T04:09:47.385Z,94.37
2023-05-19T04:10:47.401Z,93.52
2023-05-19T04:11:47.449Z,93.47
2023-05-19T04:12:47.466Z,93.95
2023-05-19T04:13:47.452Z,94.14
2023-05-19T04:14:47.473Z,94.30
2023-05-19T04:15:47.479Z,95.58
2023-05-19T04:16:47.453Z,95.72
2023-05-19T04:17:47.495Z,95.08
2023-05-19T04:18:47.465Z,96.52
2023-05-19T04:19:47.398Z,95.22
2023-05-19T04:20:47.421Z,96.59
2023-05-19T04:21:47.405Z,95.61
2023-05-19T04:22:47.396Z,94.71
2023-05-19T04:23:47.409Z,92.81
2023-05-19T04:24:47.360Z,96.52
2023-05-19T04:25:47.353Z,93.34
2023-05-19T04:26:47.399Z,94.90
2023-05-19T04:27:47.350Z,94.95
2023-05-19T04:28:47.376Z,95.46
2023-05-19T04:29:47.361Z,95.96
2023-05-19T04:30:47.362Z,95.34
2023-05-19T04:31:47.392Z,94.83
2023-05-19T04:32:47.451Z,94.64
2023-05-19T04:33:47.414Z,94.81
2023-05-19T04:34:47.452Z,92.40
2023-05-19T04:35:47.471Z,95.79
2023-05-19T04:36:47.512Z,96.66
2023-05-19T04:37:47.538Z,91.75
2023-05-19T04:38:47.619Z,94.06
2023-05-19T04:39:47.593Z,93.72
2023-05-19T04:40:47.662Z,95.15
2023-05-19T04:41:47.659Z,92.49
2023-05-19T04:42:47.727Z,94.85
2023-05-19T04:43:47.736Z,93.77
2023-05-19T04:44:47.760Z,95.36
2023-05-19T04:45:47.801Z,92.71
2023-05-19T04:46:47.893Z,93.24
2023-05-19T04:47:47.883Z,94.06
2023-05-19T04:48:47.840Z,92.77
2023-05-19T04:49:47.892Z,94.42
2023-05-19T04:50:47.901Z,93.40
2023-05-19T04:51:47.972Z,91.51
2023-05-19T04:52:47.996Z,93.53
2023-05-19T04:53:48.015Z,92.01
2023-05-19T04:54:48.015Z,94.48
2023-05-19T04:55:48.069Z,92.50
2023-05-19T04:56:48.092Z,93.99
2023-05-19T04:57:48.135Z,92.16
2023-05-19T04:58:48.145Z,91.88
2023-05-19T04:59:48.173Z,92.06
2023-05-19T05:00:48.191Z,93.17
2023-05-19T05:01:48.312Z,93.21
2023-05-19T05:02:48.355Z,93.80
2023-05-19T05:03:48.308Z,93.93
2023-05-19T05:04:48.297Z,93.88
2023-05-19T05:05:48.331Z,91.02
2023-05-19T05:06:48.381Z,92.84
2023-05-19T05:07:48.399Z,89.97
2023-05-19T05:08:48.436Z,93.17
2023-05-19T05:09:48.438Z,94.59
2023-05-19T05:10:48.476Z,92.24
2023-05-19T05:11:48.486Z,93.27
2023-05-19T05:12:48.511Z,94.34
2023-05-19T05:13:49.416Z,91.02
2023-05-19T05:14:48.591Z,94.81
2023-05-19T05:15:48.616Z,91.88
2023-05-19T05:16:48.698Z,91.94
2023-05-19T05:17:48.688Z,93.66
2023-05-19T05:18:48.762Z,91.57
2023-05-19T05:19:48.750Z,91.32
2023-05-19T05:20:48.748Z,92.54
2023-05-19T05:21:48.732Z,90.30
2023-05-19T05:22:48.767Z,92.74
2023-05-19T05:23:48.799Z,93.13
2023-05-19T05:24:48.825Z,92.71
2023-05-19T05:25:48.830Z,91.56
2023-05-19T05:26:48.883Z,92.64
2023-05-19T05:27:48.876Z,93.29
2023-05-19T05:28:48.929Z,89.97
2023-05-19T05:29:49.802Z,91.73
2023-05-19T05:30:49.003Z,91.76
2023-05-19T05:31:48.983Z,90.59
2023-05-19T05:32:49.058Z,93.63
2023-05-19T05:33:49.090Z,90.76
2023-05-19T05:34:49.091Z,89.63
2023-05-19T05:35:49.100Z,90.98
2023-05-19T05:36:49.126Z,91.15
2023-05-19T05:37:49.142Z,91.46
2023-05-19T05:38:49.158Z,92.09
2023-05-19T05:39:49.220Z,92.07
2023-05-19T05:40:49.245Z,91.71
2023-05-19T05:41:49.271Z,91.54
2023-05-19T05:42:49.286Z,91.91
2023-05-19T05:43:49.324Z,91.01
2023-05-19T05:44:49.312Z,90.14
2023-05-19T05:45:49.393Z,92.85
2023-05-19T05:46:49.366Z,92.34
2023-05-19T05:47:49.392Z,88.80
2023-05-19T05:48:49.430Z,89.31
2023-05-19T05:49:50.598Z,92.09
2023-05-19T05:50:49.642Z,90.59
2023-05-19T05:52:01.943Z,92.47
2023-05-19T05:52:50.681Z,92.57
2023-05-19T05:53:49.668Z,92.67
2023-05-19T05:54:49.671Z,92.63
2023-05-19T05:55:49.683Z,92.23
2023-05-19T05:56:49.655Z,90.03
2023-05-19T05:57:49.648Z,92.29
2023-05-19T05:58:49.698Z,89.77
2023-05-19T05:59:49.658Z,92.57
2023-05-19T06:00:49.629Z,92.84
2023-05-19T06:01:49.661Z,90.04
2023-05-19T06:02:49.698Z,90.49
2023-05-19T06:03:49.656Z,90.33
2023-05-19T06:04:49.590Z,89.30
2023-05-19T06:05:49.685Z,91.02
2023-05-19T06:06:49.614Z,90.54
2023-05-19T06:07:49.623Z,90.96
2023-05-19T06:08:49.585Z,90.94
2023-05-19T06:09:49.602Z,87.54
2023-05-19T06:10:49.590Z,88.18
2023-05-19T06:11:49.578Z,89.97
2023-05-19T06:12:49.550Z,88.98
2023-05-19T06:13:49.543Z,88.36
2023-05-19T06:14:49.544Z,87.18
2023-05-19T06:15:49.562Z,91.17
2023-05-19T06:16:49.566Z,88.79
2023-05-19T06:17:49.642Z,86.62
2023-05-19T06:18:49.594Z,86.65
2023-05-19T06:19:49.625Z,87.46
2023-05-19T06:20:49.596Z,89.56
2023-05-19T06:21:49.611Z,88.49
2023-05-19T06:22:49.666Z,89.59
2023-05-19T06:23:49.670Z,87.89
2023-05-19T06:24:49.702Z,88.47
2023-05-19T06:25:49.675Z,89.35
2023-05-19T06:26:49.691Z,87.00
2023-05-19T06:27:49.687Z,87.74
2023-05-19T06:28:49.724Z,87.28
2023-05-19T06:29:49.748Z,87.27
2023-05-19T06:30:49.748Z,85.29
2023-05-19T06:31:49.846Z,88.74
2023-05-19T06:32:49.834Z,89.22
2023-05-19T06:33:49.825Z,88.10
2023-05-19T06:34:49.829Z,87.21
2023-05-19T06:35:49.827Z,88.70
2023-05-19T06:36:49.837Z,89.60
2023-05-19T06:37:49.835Z,89.47
2023-05-19T06:38:49.860Z,87.41
2023-05-19T06:39:49.879Z,89.42
2023-05-19T06:40:49.882Z,89.32
2023-05-19T06:41:49.876Z,87.37
2023-05-19T06:42:49.914Z,87.29
2023-05-19T06:43:49.951Z,85.49
2023-05-19T06:44:49.952Z,88.55
2023-05-19T06:45:49.925Z,89.56
2023-05-19T06:46:50.004Z,87.65
2023-05-19T06:47:49.981Z,87.68
2023-05-19T06:48:49.979Z,88.24
2023-05-19T06:49:49.987Z,86.69
2023-05-19T06:50:49.996Z,86.46
2023-05-19T06:51:50.021Z,87.19
2023-05-19T06:52:50.035Z,88.08
2023-05-19T06:53:50.036Z,87.14
2023-05-19T06:54:50.026Z,86.69
2023-05-19T06:55:58.670Z,86.38
2023-05-19T06:56:51.029Z,86.54
2023-05-19T06:57:50.020Z,86.72
2023-05-19T06:58:49.992Z,86.58
2023-05-19T06:59:50.056Z,87.52
2023-05-19T07:00:49.998Z,87.78
2023-05-19T07:01:50.073Z,85.66
2023-05-19T07:02:50.102Z,87.46
2023-05-19T07:03:50.038Z,86.18
2023-05-19T07:04:49.978Z,85.18
2023-05-19T07:05:50.008Z,87.42
2023-05-19T07:06:49.962Z,86.68
2023-05-19T07:07:49.983Z,86.13
2023-05-19T07:08:49.947Z,86.44
2023-05-19T07:09:49.956Z,84.80
2023-05-19T07:10:49.977Z,87.64
2023-05-19T07:11:49.949Z,86.30
2023-05-19T07:12:49.933Z,85.19
2023-05-19T07:13:49.926Z,86.43
2023-05-19T07:14:49.955Z,86.16
2023-05-19T07:15:49.914Z,85.44
2023-05-19T07:16:49.979Z,85.27
2023-05-19T07:17:49.897Z,84.58
2023-05-19T07:18:49.903Z,84.74
2023-05-19T07:19:49.934Z,84.88
2023-05-19T07:20:49.884Z,84.64
2023-05-19T07:21:49.892Z,85.14
2023-05-19T07:22:49.855Z,88.17
2023-05-19T07:23:49.844Z,85.18
2023-05-19T07:24:49.861Z,84.96
2023-05-19T07:25:49.826Z,84.45
2023-05-19T07:26:49.841Z,85.12
2023-05-19T07:27:49.830Z,83.43
2023-05-19T07:28:49.805Z,84.26
2023-05-19T07:29:49.814Z,85.36
2023-05-19T07:30:49.808Z,86.30
2023-05-19T07:31:49.807Z,85.30
2023-05-19T07:32:49.808Z,85.07
2023-05-19T07:33:50.721Z,85.06
2023-05-19T07:34:49.774Z,85.17
2023-05-19T07:35:49.780Z,85.59
2023-05-19T07:36:49.786Z,83.87
2023-05-19T07:37:49.769Z,84.46
2023-05-19T07:38:49.778Z,85.35
2023-05-19T07:39:49.749Z,84.43
2023-05-19T07:40:49.759Z,86.71
2023-05-19T07:41:49.727Z,84.84
2023-05-19T07:42:49.719Z,83.92
2023-05-19T07:43:49.706Z,81.98
2023-05-19T07:44:49.686Z,84.05
2023-05-19T07:45:49.750Z,83.71
2023-05-19T07:46:49.709Z,83.46
2023-05-19T07:47:49.793Z,83.74
2023-05-19T07:48:49.670Z,81.95
2023-05-19T07:49:51.141Z,82.81
2023-05-19T07:50:49.669Z,83.68
2023-05-19T07:51:49.680Z,83.59
2023-05-19T07:52:49.633Z,83.63
2023-05-19T07:53:49.689Z,82.55
2023-05-19T07:54:49.654Z,86.22
2023-05-19T07:55:49.661Z,85.25
2023-05-19T07:56:49.643Z,85.68
2023-05-19T07:57:49.619Z,84.91
2023-05-19T07:58:49.630Z,82.73
2023-05-19T07:59:49.590Z,83.81
2023-05-19T08:00:49.606Z,85.96
2023-05-19T08:01:49.614Z,85.78
2023-05-19T08:02:49.640Z,84.25
2023-05-19T08:03:49.747Z,83.96
2023-05-19T08:04:49.645Z,82.99
2023-05-19T08:05:49.570Z,84.37
2023-05-19T08:06:49.600Z,85.05
2023-05-19T08:07:49.576Z,82.32
2023-05-19T08:08:49.586Z,82.85
2023-05-19T08:09:49.594Z,85.22
2023-05-19T08:10:49.589Z,85.37
2023-05-19T08:11:49.612Z,84.25
2023-05-19T08:12:49.608Z,82.94
2023-05-19T08:13:49.632Z,84.47
2023-05-19T08:14:49.632Z,83.82
2023-05-19T08:15:49.753Z,82.05
2023-05-19T08:16:50.015Z,84.65
2023-05-19T08:17:49.697Z,81.97
2023-05-19T08:18:49.705Z,84.55
2023-05-19T08:19:49.672Z,83.39
2023-05-19T08:20:49.677Z,83.90
2023-05-19T08:21:49.706Z,83.90
2023-05-19T08:22:49.642Z,83.38
2023-05-19T08:23:49.687Z,83.71
2023-05-19T08:24:49.697Z,84.31
2023-05-19T08:25:49.695Z,83.40
2023-05-19T08:26:49.721Z,85.16
2023-05-19T08:27:49.670Z,81.33
2023-05-19T08:28:49.698Z,80.00
2023-05-19T08:29:49.729Z,81.78
2023-05-19T08:30:49.749Z,80.33
2023-05-19T08:31:49.810Z,82.50
2023-05-19T08:32:49.812Z,83.36
2023-05-19T08:33:49.821Z,82.47
2023-05-19T08:34:49.857Z,83.12
2023-05-19T08:35:49.890Z,82.38
2023-05-19T08:36:49.937Z,83.45
2023-05-19T08:37:49.954Z,82.20
2023-05-19T08:38:49.998Z,83.75
2023-05-19T08:39:50.061Z,82.33
2023-05-19T08:40:50.126Z,81.69
2023-05-19T08:41:50.166Z,85.24
2023-05-19T08:42:50.207Z,82.87
2023-05-19T08:43:50.273Z,82.22
2023-05-19T08:44:50.353Z,83.10
2023-05-19T08:45:50.411Z,81.49
2023-05-19T08:46:50.587Z,83.47
2023-05-19T08:47:50.556Z,82.61
2023-05-19T08:48:50.589Z,83.19
2023-05-19T08:49:50.597Z,81.56
2023-05-19T08:50:50.709Z,81.96
2023-05-19T08:51:50.749Z,84.65
2023-05-19T08:52:52.846Z,83.04
2023-05-19T08:53:50.950Z,84.78
2023-05-19T08:54:50.994Z,84.80
2023-05-19T08:55:51.049Z,82.81
2023-05-19T08:56:51.124Z,83.96
2023-05-19T08:57:51.173Z,83.58
2023-05-19T08:58:51.261Z,82.59
2023-05-19T08:59:51.345Z,83.63
2023-05-19T09:00:51.435Z,83.44
2023-05-19T09:01:51.473Z,81.50
2023-05-19T09:03:00.966Z,83.30
2023-05-19T09:03:52.570Z,83.45
2023-05-19T09:04:51.527Z,83.58
2023-05-19T09:05:51.590Z,84.40
2023-05-19T09:06:51.464Z,83.43
2023-05-19T09:07:51.464Z,84.67
2023-05-19T09:08:51.444Z,83.72
2023-05-19T09:09:51.462Z,83.10
2023-05-19T09:10:51.426Z,84.14
2023-05-19T09:11:51.504Z,82.73
2023-05-19T09:12:51.627Z,83.80
2023-05-19T09:13:51.639Z,82.97
2023-05-19T09:14:51.693Z,82.36
2023-05-19T09:15:51.808Z,82.75
2023-05-19T09:16:51.894Z,84.08
2023-05-19T09:17:51.971Z,82.08
2023-05-19T09:18:51.924Z,82.57
2023-05-19T09:19:51.997Z,84.81
2023-05-19T09:20:52.033Z,83.78
2023-05-19T09:21:52.088Z,84.66
2023-05-19T09:22:52.185Z,82.48
2023-05-19T09:23:52.198Z,84.09
2023-05-19T09:24:52.297Z,82.97
2023-05-19T09:25:52.375Z,85.46
2023-05-19T09:26:52.416Z,85.61
2023-05-19T09:27:52.467Z,83.90
2023-05-19T09:28:52.489Z,84.17
2023-05-19T09:29:52.568Z,82.77
2023-05-19T09:30:52.665Z,84.85
2023-05-19T09:31:52.747Z,79.93
2023-05-19T09:32:52.761Z,82.14
2023-05-19T09:33:52.789Z,83.71
2023-05-19T09:34:52.838Z,84.39
2023-05-19T09:35:52.885Z,84.67
2023-05-19T09:36:52.951Z,83.20
2023-05-19T09:37:52.998Z,83.23
2023-05-19T09:38:53.074Z,84.41
2023-05-19T09:39:53.245Z,84.54
2023-05-19T09:40:53.174Z,83.13
2023-05-19T09:41:53.195Z,85.05
2023-05-19T09:42:53.278Z,84.19
2023-05-19T09:43:53.305Z,84.94
2023-05-19T09:44:53.398Z,83.97
2023-05-19T09:45:53.437Z,84.81
2023-05-19T09:46:53.501Z,83.19
2023-05-19T09:47:53.546Z,83.56
2023-05-19T09:48:53.602Z,85.85
2023-05-19T09:49:53.635Z,83.51
2023-05-19T09:50:53.686Z,82.21
2023-05-19T09:51:53.778Z,84.76
2023-05-19T09:52:53.793Z,81.82
2023-05-19T09:53:53.837Z,81.99
2023-05-19T09:54:53.861Z,84.07
2023-05-19T09:55:53.993Z,84.14
2023-05-19T09:56:53.976Z,85.17
2023-05-19T09:57:54.019Z,83.83
2023-05-19T09:58:54.150Z,82.59
2023-05-19T09:59:54.099Z,81.24
2023-05-19T10:00:54.175Z,83.08
2023-05-19T10:01:54.350Z,84.88
2023-05-19T10:02:54.405Z,84.56
2023-05-19T10:03:54.344Z,83.39
2023-05-19T10:04:54.376Z,82.87
2023-05-19T10:05:54.389Z,84.88
2023-05-19T10:06:54.432Z,84.41
2023-05-19T10:07:54.481Z,83.69
2023-05-19T10:08:54.498Z,84.56
2023-05-19T10:09:55.733Z,82.37
2023-05-19T10:10:54.557Z,83.63
2023-05-19T10:11:54.623Z,86.18
2023-05-19T10:12:54.654Z,84.59
2023-05-19T10:13:54.678Z,83.89
2023-05-19T10:14:54.720Z,86.14
2023-05-19T10:15:58.907Z,85.37
2023-05-19T10:16:54.922Z,85.49
2023-05-19T10:17:54.781Z,85.78
2023-05-19T10:18:54.751Z,84.11
2023-05-19T10:19:54.753Z,84.41
2023-05-19T10:20:54.742Z,86.03
2023-05-19T10:21:54.749Z,84.52
2023-05-19T10:22:54.695Z,84.94
2023-05-19T10:23:54.713Z,85.35
2023-05-19T10:24:54.721Z,85.50
2023-05-19T10:25:54.703Z,83.47
2023-05-19T10:26:54.692Z,84.31
2023-05-19T10:27:54.713Z,83.95
2023-05-19T10:28:54.678Z,85.00
2023-05-19T10:29:54.651Z,87.22
2023-05-19T10:30:54.661Z,85.87
2023-05-19T10:31:54.698Z,83.86
2023-05-19T10:32:54.676Z,83.28
2023-05-19T10:33:54.638Z,85.03
2023-05-19T10:34:54.682Z,87.07
2023-05-19T10:35:54.701Z,85.49
2023-05-19T10:36:54.765Z,83.96
2023-05-19T10:37:54.761Z,85.27
2023-05-19T10:38:54.806Z,84.39
2023-05-19T10:39:54.816Z,86.45
2023-05-19T10:40:54.854Z,84.92
2023-05-19T10:41:54.895Z,82.24
2023-05-19T10:42:54.898Z,85.84
2023-05-19T10:43:54.946Z,85.64
2023-05-19T10:44:54.996Z,84.91
2023-05-19T10:45:55.043Z,85.63
2023-05-19T10:46:56.799Z,86.98
2023-05-19T10:47:55.056Z,85.77
2023-05-19T10:48:55.076Z,86.62
2023-05-19T10:49:55.100Z,85.79
2023-05-19T10:50:55.182Z,86.74
2023-05-19T10:51:55.191Z,84.50
2023-05-19T10:52:55.188Z,85.42
2023-05-19T10:53:55.199Z,87.85
2023-05-19T10:54:55.233Z,87.31
2023-05-19T10:55:55.266Z,86.29
2023-05-19T10:56:55.304Z,87.12
2023-05-19T10:57:55.309Z,86.65
2023-05-19T10:58:55.317Z,85.19
2023-05-19T10:59:55.360Z,85.64
2023-05-19T11:00:55.376Z,86.98
2023-05-19T11:01:55.474Z,86.26
2023-05-19T11:02:55.454Z,86.47
2023-05-19T11:03:55.491Z,86.28
2023-05-19T11:04:55.489Z,85.58
2023-05-19T11:05:55.508Z,86.41
2023-05-19T11:06:55.543Z,86.86
2023-05-19T11:07:55.579Z,87.23
2023-05-19T11:08:55.604Z,86.38
2023-05-19T11:09:55.599Z,86.64
2023-05-19T11:10:55.648Z,84.81
2023-05-19T11:11:55.687Z,84.97
2023-05-19T11:12:55.679Z,88.84
2023-05-19T11:13:55.735Z,87.70
2023-05-19T11:14:55.956Z,86.68
2023-05-19T11:15:55.785Z,85.34
2023-05-19T11:16:55.917Z,88.15
2023-05-19T11:17:55.993Z,87.95
2023-05-19T11:18:55.927Z,88.22
2023-05-19T11:19:55.925Z,87.29
2023-05-19T11:20:55.994Z,89.61
2023-05-19T11:21:55.986Z,88.45
2023-05-19T11:22:56.067Z,87.14
2023-05-19T11:23:56.219Z,88.73
2023-05-19T11:24:56.056Z,86.96
2023-05-19T11:25:56.082Z,88.09
2023-05-19T11:26:56.113Z,87.21
2023-05-19T11:27:56.181Z,86.24
2023-05-19T11:28:56.181Z,88.09
2023-05-19T11:29:56.202Z,89.51
2023-05-19T11:30:56.213Z,87.40
2023-05-19T11:31:56.338Z,87.76
2023-05-19T11:32:56.328Z,86.90
2023-05-19T11:33:56.317Z,86.56
2023-05-19T11:34:56.338Z,88.01
2023-05-19T11:35:56.364Z,87.28
2023-05-19T11:36:56.376Z,87.99
2023-05-19T11:37:56.429Z,89.59
2023-05-19T11:38:56.457Z,88.42
2023-05-19T11:39:56.474Z,88.30
2023-05-19T11:40:56.495Z,88.89
2023-05-19T11:41:56.522Z,89.37
2023-05-19T11:42:56.577Z,89.44
2023-05-19T11:43:56.571Z,88.58
2023-05-19T11:44:56.583Z,90.24
2023-05-19T11:45:56.687Z,88.47
2023-05-19T11:46:56.709Z,87.55
2023-05-19T11:48:02.543Z,89.47
2023-05-19T11:48:57.698Z,89.67
2023-05-19T11:49:56.627Z,89.69
2023-05-19T11:50:56.649Z,90.30
2023-05-19T11:51:56.639Z,89.54
2023-05-19T11:52:56.609Z,88.23
2023-05-19T11:53:56.595Z,88.69
2023-05-19T11:54:56.678Z,89.86
2023-05-19T11:55:56.606Z,90.77
2023-05-19T11:56:56.625Z,87.59
2023-05-19T11:58:57.572Z,90.80
2023-05-19T11:59:56.557Z,90.49
2023-05-19T12:00:56.542Z,91.05
2023-05-19T12:01:56.551Z,92.14
2023-05-19T12:02:56.628Z,88.88
2023-05-19T12:03:56.719Z,92.23
2023-05-19T12:04:56.560Z,90.77
2023-05-19T12:05:56.635Z,92.63
2023-05-19T12:06:56.540Z,90.75
2023-05-19T12:07:56.528Z,93.07
2023-05-19T12:08:56.504Z,91.57
2023-05-19T12:09:56.513Z,91.04
2023-05-19T12:10:56.506Z,90.50
2023-05-19T12:11:56.486Z,91.84
2023-05-19T12:12:56.497Z,88.40
2023-05-19T12:13:56.452Z,92.51
2023-05-19T12:14:56.457Z,92.13
2023-05-19T12:15:56.529Z,92.83
2023-05-19T12:16:56.455Z,92.15
2023-05-19T12:17:56.453Z,92.20
2023-05-19T12:18:56.483Z,91.30
2023-05-19T12:19:56.419Z,91.67
2023-05-19T12:20:56.442Z,91.96
2023-05-19T12:21:56.487Z,89.71
2023-05-19T12:22:56.487Z,88.47
2023-05-19T12:23:56.487Z,90.33
2023-05-19T12:24:56.505Z,89.41
2023-05-19T12:25:56.517Z,90.76
2023-05-19T12:26:56.543Z,92.56
2023-05-19T12:27:58.012Z,93.06
2023-05-19T12:28:56.594Z,93.25
2023-05-19T12:29:56.612Z,93.40
2023-05-19T12:30:56.616Z,93.76
2023-05-19T12:31:56.683Z,93.19
2023-05-19T12:32:56.747Z,92.21
2023-05-19T12:33:56.696Z,93.04
2023-05-19T12:34:56.741Z,92.17
2023-05-19T12:35:56.810Z,90.30
2023-05-19T12:36:56.752Z,94.21
2023-05-19T12:37:56.812Z,93.01
2023-05-19T12:38:56.820Z,92.51
2023-05-19T12:39:56.827Z,89.85
2023-05-19T12:40:56.825Z,92.15
2023-05-19T12:41:56.857Z,91.36
2023-05-19T12:42:56.879Z,91.76
2023-05-19T12:43:56.902Z,93.55
2023-05-19T12:44:56.954Z,91.88
2023-05-19T12:45:56.936Z,93.06
2023-05-19T12:46:56.970Z,90.73
2023-05-19T12:47:57.062Z,91.15
2023-05-19T12:48:57.000Z,93.88
2023-05-19T12:49:57.002Z,93.96
2023-05-19T12:50:57.033Z,93.11
2023-05-19T12:51:57.219Z,92.66
2023-05-19T12:52:57.065Z,91.70
2023-05-19T12:53:57.067Z,93.05